createdAt,value
2019-02-28T00:00:18.686Z,65.11
2019-02-28T00:04:22.672Z,64.88
2019-02-28T00:08:25.211Z,65.57
2019-02-28T00:12:27.543Z,65.47
2019-02-28T00:16:30.229Z,66.03
2019-02-28T00:20:32.778Z,66.10
2019-02-28T00:24:35.293Z,66.01
2019-02-28T00:28:37.857Z,65.86
2019-02-28T00:32:40.831Z,66.33
2019-02-28T00:36:43.485Z,66.67
2019-02-28T00:40:45.891Z,66.63
2019-02-28T00:44:50.191Z,66.42
2019-02-28T00:48:53.944Z,66.48
2019-02-28T00:52:56.860Z,66.98
2019-02-28T00:56:59.270Z,66.94
2019-02-28T01:01:01.706Z,66.87
2019-02-28T01:05:06.124Z,67.64
2019-02-28T01:09:10.288Z,67.99
2019-02-28T01:13:12.830Z,68.36
2019-02-28T01:17:15.316Z,68.81
2019-02-28T01:21:17.730Z,69.29
2019-02-28T01:25:20.316Z,69.26
2019-02-28T01:29:22.745Z,69.33
2019-02-28T01:33:25.708Z,69.65
2019-02-28T01:37:28.613Z,69.39
2019-02-28T01:41:31.180Z,69.65
2019-02-28T01:45:34.247Z,70.44
2019-02-28T01:49:36.560Z,70.55
2019-02-28T01:53:39.661Z,70.73
2019-02-28T01:57:43.995Z,70.84
2019-02-28T02:01:46.298Z,70.91
2019-02-28T02:05:51.860Z,70.96
2019-02-28T02:09:52.694Z,70.96
2019-02-28T02:13:55.011Z,71.91
2019-02-28T02:17:57.718Z,71.35
2019-02-28T02:22:00.175Z,71.99
2019-02-28T02:26:02.585Z,72.08
2019-02-28T02:30:13.373Z,72.40
2019-02-28T02:34:10.308Z,72.43
2019-02-28T02:38:14.071Z,73.45
2019-02-28T02:42:16.728Z,72.98
2019-02-28T02:46:21.248Z,73.36
2019-02-28T02:50:23.697Z,73.21
2019-02-28T02:54:26.036Z,73.04
2019-02-28T02:58:28.479Z,73.96
2019-02-28T03:02:33.177Z,73.73
2019-02-28T03:06:34.941Z,73.32
2019-02-28T03:10:37.470Z,73.93
2019-02-28T03:14:39.879Z,73.77
2019-02-28T03:18:42.385Z,74.11
2019-02-28T03:22:44.898Z,74.39
2019-02-28T03:26:47.345Z,74.54
2019-02-28T03:30:49.902Z,74.36
2019-02-28T03:34:58.223Z,74.59
2019-02-28T03:38:56.364Z,75.74
2019-02-28T03:43:05.251Z,75.84
2019-02-28T03:47:04.095Z,75.50
2019-02-28T03:51:06.508Z,75.74
2019-02-28T03:55:09.184Z,75.83
2019-02-28T03:59:18.489Z,76.30
2019-02-28T04:03:15.851Z,76.29
2019-02-28T04:07:18.277Z,76.36
2019-02-28T04:11:20.842Z,76.70
2019-02-28T04:15:23.454Z,77.36
2019-02-28T04:19:26.008Z,76.92
2019-02-28T04:23:35.520Z,77.43
2019-02-28T04:27:32.585Z,77.23
2019-02-28T04:31:37.747Z,77.97
2019-02-28T04:35:40.223Z,78.24
2019-02-28T04:39:42.672Z,78.49
2019-02-28T04:43:45.182Z,78.01
2019-02-28T04:47:47.620Z,78.80
2019-02-28T04:51:50.700Z,79.07
2019-02-28T04:55:53.330Z,79.29
2019-02-28T04:59:55.830Z,79.72
2019-02-28T05:03:59.236Z,79.92
2019-02-28T05:08:05.731Z,79.81
2019-02-28T05:12:06.349Z,79.83
2019-02-28T05:16:09.312Z,80.03
2019-02-28T05:20:12.961Z,80.20
2019-02-28T05:24:15.435Z,80.37
2019-02-28T05:28:17.816Z,80.38
2019-02-28T05:32:20.591Z,80.74
2019-02-28T05:36:23.007Z,81.13
2019-02-28T05:40:25.682Z,81.00
2019-02-28T05:44:27.995Z,81.59
2019-02-28T05:48:30.410Z,81.25
2019-02-28T05:52:33.702Z,81.12
2019-02-28T05:56:38.444Z,81.65
2019-02-28T06:00:40.823Z,82.01
2019-02-28T06:04:43.230Z,81.82
2019-02-28T06:08:45.572Z,81.57
2019-02-28T06:12:48.005Z,81.19
2019-02-28T06:16:50.330Z,80.80
2019-02-28T06:20:52.866Z,80.23
2019-02-28T06:24:55.170Z,79.98
2019-02-28T06:28:57.720Z,79.84
2019-02-28T06:33:00.067Z,80.00
2019-02-28T06:37:03.735Z,79.90
2019-02-28T06:41:07.632Z,80.24
2019-02-28T06:45:13.360Z,80.51
2019-02-28T06:49:15.695Z,80.11
2019-02-28T06:53:18.241Z,80.43
2019-02-28T06:57:20.635Z,80.42
2019-02-28T07:01:23.222Z,80.16
2019-02-28T07:05:26.320Z,79.96
2019-02-28T07:09:30.536Z,79.58
2019-02-28T07:13:33.190Z,79.38
2019-02-28T07:17:35.618Z,78.61
2019-02-28T07:21:43.001Z,78.06
2019-02-28T07:25:44.286Z,77.53
2019-02-28T07:29:46.110Z,76.91
2019-02-28T07:33:48.606Z,76.42
2019-02-28T07:37:54.418Z,76.04
2019-02-28T07:41:58.817Z,75.79
2019-02-28T07:46:01.097Z,75.25
2019-02-28T07:50:04.070Z,75.18
2019-02-28T07:54:06.611Z,74.50
2019-02-28T07:58:09.125Z,73.94
2019-02-28T08:02:11.711Z,73.86
2019-02-28T08:06:14.245Z,73.75
2019-02-28T08:10:18.911Z,73.56
2019-02-28T08:14:21.365Z,73.45
2019-02-28T08:18:23.731Z,73.42
2019-02-28T08:22:26.266Z,73.34
2019-02-28T08:26:28.590Z,74.27
2019-02-28T08:30:31.160Z,74.31
2019-02-28T08:34:33.584Z,73.69
2019-02-28T08:38:35.987Z,73.53
2019-02-28T08:42:39.633Z,73.55
2019-02-28T08:46:43.495Z,73.86
2019-02-28T08:50:47.474Z,73.51
2019-02-28T08:54:49.886Z,74.02
2019-02-28T08:58:52.230Z,74.95
2019-02-28T09:02:54.670Z,75.08
2019-02-28T09:06:57.110Z,75.41
2019-02-28T09:11:01.041Z,75.40
2019-02-28T09:15:03.424Z,76.27
2019-02-28T09:19:06.156Z,77.28
2019-02-28T09:23:08.510Z,78.46
2019-02-28T09:27:12.289Z,79.12
2019-02-28T09:31:14.754Z,79.96
2019-02-28T09:35:17.311Z,80.05
2019-02-28T09:39:20.326Z,80.23
2019-02-28T09:43:23.921Z,80.45
2019-02-28T09:47:27.517Z,80.19
2019-02-28T09:51:32.093Z,80.13
2019-02-28T09:55:35.459Z,79.97
2019-02-28T09:59:38.670Z,79.32
2019-02-28T10:03:41.333Z,80.06
2019-02-28T10:07:44.084Z,79.62
2019-02-28T10:11:46.629Z,79.10
2019-02-28T10:15:49.240Z,79.04
2019-02-28T10:19:52.242Z,79.22
2019-02-28T10:23:57.063Z,79.37
2019-02-28T10:28:02.628Z,79.20
2019-02-28T10:32:06.193Z,79.82
2019-02-28T10:36:09.348Z,80.87
2019-02-28T10:40:17.726Z,81.51
2019-02-28T10:44:19.216Z,81.64
2019-02-28T10:48:21.744Z,81.81
2019-02-28T10:52:26.999Z,81.80
2019-02-28T10:56:31.737Z,81.57
2019-02-28T11:00:33.803Z,81.11
2019-02-28T11:04:36.241Z,81.02
2019-02-28T11:08:38.677Z,80.44
2019-02-28T11:12:41.902Z,80.42
2019-02-28T11:16:44.382Z,80.75
2019-02-28T11:20:47.197Z,81.03
2019-02-28T11:24:50.062Z,80.80
2019-02-28T11:28:52.615Z,81.18
2019-02-28T11:32:55.594Z,80.97
2019-02-28T11:36:58.018Z,81.01
2019-02-28T11:41:00.577Z,80.56
2019-02-28T11:45:03.107Z,80.23
2019-02-28T11:49:07.052Z,80.09
2019-02-28T11:53:09.531Z,79.61
2019-02-28T11:57:12.016Z,79.08
2019-02-28T12:01:14.452Z,78.70
2019-02-28T12:05:16.897Z,78.79
2019-02-28T12:09:20.043Z,79.14
2019-02-28T12:13:22.703Z,79.25
2019-02-28T12:17:25.533Z,79.87
2019-02-28T12:21:30.915Z,80.18
2019-02-28T12:25:33.701Z,80.40
2019-02-28T12:29:36.387Z,80.81
2019-02-28T12:33:38.820Z,81.21
2019-02-28T12:37:41.381Z,81.46
2019-02-28T12:41:43.851Z,81.81
2019-02-28T12:45:47.349Z,82.47
2019-02-28T12:49:50.027Z,82.58
2019-02-28T12:53:52.377Z,82.68
2019-02-28T12:57:57.681Z,83.01
2019-02-28T13:01:58.947Z,82.96
2019-02-28T13:06:02.617Z,83.21
2019-02-28T13:10:05.810Z,83.59
2019-02-28T13:14:08.527Z,83.90
2019-02-28T13:18:10.942Z,83.70
2019-02-28T13:22:13.494Z,83.88
2019-02-28T13:26:16.320Z,83.87
2019-02-28T13:30:23.505Z,84.04
2019-02-28T13:34:29.319Z,84.00
2019-02-28T13:38:31.407Z,84.00
2019-02-28T13:42:36.293Z,84.06
2019-02-28T13:46:38.477Z,84.29
2019-02-28T13:50:40.840Z,83.71
2019-02-28T13:54:43.379Z,83.89
2019-02-28T13:58:47.106Z,83.84
2019-02-28T14:02:49.746Z,83.71
2019-02-28T14:06:52.443Z,84.12
2019-02-28T14:10:56.441Z,83.99
2019-02-28T14:14:58.760Z,84.40
2019-02-28T14:19:01.282Z,84.44
2019-02-28T14:23:03.624Z,84.81
2019-02-28T14:27:06.186Z,85.04
2019-02-28T14:31:08.985Z,85.69
2019-02-28T14:35:11.995Z,86.08
2019-02-28T14:39:14.410Z,86.34
2019-02-28T14:43:19.544Z,86.73
2019-02-28T14:47:20.921Z,86.61
2019-02-28T14:51:25.517Z,86.56
2019-02-28T14:55:29.246Z,86.58
2019-02-28T14:59:32.023Z,86.18
2019-02-28T15:03:35.909Z,86.12
2019-02-28T15:07:42.039Z,85.36
2019-02-28T15:11:47.088Z,83.84
2019-02-28T15:15:53.099Z,83.67
2019-02-28T15:19:56.986Z,81.08
2019-02-28T15:23:57.867Z,82.25
2019-02-28T15:28:00.180Z,81.70
2019-02-28T15:32:02.821Z,81.23
2019-02-28T15:36:07.101Z,81.09
2019-02-28T15:40:12.006Z,80.62
2019-02-28T15:44:14.472Z,79.56
2019-02-28T15:48:16.958Z,79.19
2019-02-28T15:52:19.379Z,78.25
2019-02-28T15:56:22.013Z,78.20
2019-02-28T16:00:28.474Z,79.03
2019-02-28T16:04:31.105Z,79.37
2019-02-28T16:08:33.506Z,80.48
2019-02-28T16:12:35.969Z,82.76
2019-02-28T16:16:38.293Z,84.25
2019-02-28T16:20:40.809Z,85.97
2019-02-28T16:24:47.553Z,86.91
2019-02-28T16:28:51.518Z,87.12
2019-02-28T16:32:54.115Z,86.94
2019-02-28T16:36:57.521Z,85.09
2019-02-28T16:41:01.557Z,80.93
2019-02-28T16:45:06.142Z,78.05
2019-02-28T16:49:10.522Z,76.01
2019-02-28T16:53:16.212Z,76.13
2019-02-28T16:57:18.000Z,74.61
2019-02-28T17:01:21.373Z,74.41
2019-02-28T17:05:27.973Z,74.85
2019-02-28T17:09:34.325Z,75.27
2019-02-28T17:13:42.345Z,76.86
2019-02-28T17:17:54.500Z,76.80
2019-02-28T17:21:56.974Z,74.97
2019-02-28T17:26:00.660Z,74.08
2019-02-28T17:30:14.525Z,71.62
2019-02-28T17:34:23.713Z,71.51
2019-02-28T17:38:23.484Z,72.60
2019-02-28T17:42:25.998Z,72.79
2019-02-28T17:46:28.355Z,70.45
2019-02-28T17:51:18.742Z,72.00
2019-02-28T17:55:59.224Z,70.77
2019-02-28T18:00:51.819Z,69.82
2019-02-28T18:05:36.549Z,70.69
2019-02-28T18:10:03.395Z,71.39
2019-02-28T18:14:46.899Z,69.13
2019-02-28T18:19:45.275Z,70.48
2019-02-28T18:24:52.689Z,69.63
2019-02-28T18:29:25.854Z,68.62
2019-02-28T18:33:28.329Z,67.97
2019-02-28T18:37:30.709Z,68.40
2019-02-28T18:41:33.607Z,68.52
2019-02-28T18:45:36.509Z,68.76
2019-02-28T18:49:39.333Z,69.38
2019-02-28T18:53:42.015Z,66.47
2019-02-28T18:57:44.629Z,66.02
2019-02-28T19:01:47.391Z,64.65
2019-02-28T19:05:50.039Z,65.05
2019-02-28T19:09:52.403Z,62.98
2019-02-28T19:13:55.100Z,63.70
2019-02-28T19:17:57.750Z,62.80
2019-02-28T19:22:00.295Z,63.58
2019-02-28T19:26:02.666Z,64.41
2019-02-28T19:30:06.650Z,64.03
2019-02-28T19:34:10.550Z,65.12
2019-02-28T19:38:13.158Z,66.45
2019-02-28T19:42:17.729Z,65.07
2019-02-28T19:46:20.415Z,64.81
2019-02-28T19:50:23.992Z,64.30
2019-02-28T19:54:26.717Z,63.77
2019-02-28T19:58:29.375Z,64.79
2019-02-28T20:02:32.027Z,64.69
2019-02-28T20:06:34.767Z,65.92
2019-02-28T20:10:37.760Z,67.50
2019-02-28T20:14:40.554Z,67.77
2019-02-28T20:18:43.124Z,68.05
2019-02-28T20:22:45.544Z,67.52
2019-02-28T20:26:48.224Z,67.06
2019-02-28T20:30:50.783Z,66.17
2019-02-28T20:34:53.193Z,66.32
2019-02-28T20:38:55.808Z,64.75
2019-02-28T20:42:58.678Z,64.09
2019-02-28T20:47:01.282Z,63.71
2019-02-28T20:51:04.143Z,63.30
2019-02-28T20:55:06.973Z,64.20
2019-02-28T20:59:10.428Z,64.58
2019-02-28T21:03:14.731Z,64.23
2019-02-28T21:07:17.430Z,63.17
2019-02-28T21:11:20.053Z,62.38
2019-02-28T21:15:24.695Z,63.42
2019-02-28T21:19:27.181Z,63.21
2019-02-28T21:23:29.839Z,62.29
2019-02-28T21:27:32.464Z,62.80
2019-02-28T21:31:35.160Z,63.36
2019-02-28T21:35:37.785Z,63.85
2019-02-28T21:39:40.749Z,63.10
2019-02-28T21:43:43.833Z,61.37
2019-02-28T21:47:46.242Z,61.25
2019-02-28T21:51:48.719Z,61.02
2019-02-28T21:55:52.879Z,60.97
2019-02-28T21:59:55.191Z,59.03
2019-02-28T22:03:57.599Z,55.28
2019-02-28T22:07:59.912Z,55.87
2019-02-28T22:12:02.306Z,54.59
2019-02-28T22:16:06.931Z,55.00
2019-02-28T22:20:10.656Z,54.48
2019-02-28T22:24:12.977Z,52.12
2019-02-28T22:28:15.568Z,51.77
2019-02-28T22:32:24.617Z,53.63
2019-02-28T22:36:33.693Z,53.18
2019-02-28T22:40:36.071Z,54.25
2019-02-28T22:44:38.911Z,53.63
2019-02-28T22:48:41.346Z,55.65
2019-02-28T22:52:44.067Z,54.83
2019-02-28T22:56:46.727Z,55.05
2019-02-28T23:01:06.457Z,56.16
2019-02-28T23:05:09.332Z,56.21
2019-02-28T23:09:11.451Z,56.11
2019-02-28T23:13:13.812Z,56.83
2019-02-28T23:17:16.406Z,56.78
2019-02-28T23:21:19.076Z,57.92
2019-02-28T23:25:23.081Z,57.19
2019-02-28T23:29:27.751Z,57.60
2019-02-28T23:33:30.407Z,58.00
2019-02-28T23:37:32.782Z,58.05
2019-02-28T23:41:35.369Z,59.21
2019-02-28T23:45:38.628Z,57.96
2019-02-28T23:49:41.263Z,58.45
2019-02-28T23:53:43.821Z,58.21
2019-02-28T23:57:46.557Z,58.74
